Time;durP1;ratioP1;P1;durP2;ratioP2;P2;SDS_P1;SDS_P2;PMS_P1;PMS_P2;Temp;Humidity;BMP_temperature;BMP_pressure;BME280_temperature;BME280_humidity;BME280_pressure;Samples;Min_cycle;Max_cycle;Signal;HPM_P1;HPM_P2
2021/12/31 00:02:00;;;;;;;0.07;0.07;;;11.90;99.90;;;;;;5127791;27;20224;-62
2021/12/31 00:04:26;;;;;;;0.10;0.10;;;11.90;99.90;;;;;;5101586;27;20171;-59
2021/12/31 00:06:52;;;;;;;0.33;0.27;;;11.90;99.90;;;;;;5099137;27;20168;-52
2021/12/31 00:09:18;;;;;;;0.00;0.00;;;11.90;99.90;;;;;;5102485;27;20176;-57
2021/12/31 00:11:43;;;;;;;0.10;0.10;;;11.90;99.90;;;;;;5100192;27;20173;-62
2021/12/31 00:14:09;;;;;;;0.10;0.10;;;11.90;99.90;;;;;;5100497;27;20261;-54
2021/12/31 00:16:36;;;;;;;0.20;0.20;;;11.90;99.90;;;;;;5102490;27;20191;-54
2021/12/31 00:19:02;;;;;;;0.40;0.20;;;12.00;99.90;;;;;;5095955;27;20212;-55
2021/12/31 00:21:32;;;;;;;0.10;0.10;;;12.00;99.90;;;;;;5100032;27;20320;-53
2021/12/31 00:23:58;;;;;;;0.20;0.20;;;12.00;99.90;;;;;;5096774;27;20172;-57
2021/12/31 00:26:24;;;;;;;0.10;0.10;;;12.00;99.90;;;;;;5099927;27;20279;-57
2021/12/31 00:28:49;;;;;;;0.10;0.10;;;12.00;99.90;;;;;;5097830;27;20226;-60
2021/12/31 00:31:15;;;;;;;0.20;0.20;;;12.00;99.90;;;;;;5095712;27;20165;-56
2021/12/31 00:33:41;;;;;;;0.13;0.13;;;12.00;99.90;;;;;;5100810;27;20236;-64
2021/12/31 00:36:07;;;;;;;0.10;0.10;;;11.90;99.90;;;;;;5096663;27;20252;-56
2021/12/31 00:38:32;;;;;;;0.00;0.00;;;11.90;99.90;;;;;;5100285;27;20181;-60
2021/12/31 00:40:58;;;;;;;0.00;0.00;;;12.00;99.90;;;;;;5096625;27;20241;-55
2021/12/31 00:43:24;;;;;;;0.17;0.17;;;12.00;99.90;;;;;;5100239;27;20219;-57
2021/12/31 00:45:50;;;;;;;0.93;0.20;;;12.00;99.90;;;;;;5101788;27;20169;-58
2021/12/31 00:48:15;;;;;;;0.30;0.10;;;12.00;99.90;;;;;;5096627;27;20177;-57
2021/12/31 00:50:42;;;;;;;0.27;0.27;;;12.00;99.90;;;;;;5100484;27;20199;-57
2021/12/31 00:53:09;;;;;;;0.20;0.20;;;12.00;99.90;;;;;;5096400;27;20168;-58
2021/12/31 00:55:35;;;;;;;0.10;0.10;;;12.00;99.90;;;;;;5096924;27;20264;-64
2021/12/31 00:58:01;;;;;;;0.30;0.30;;;12.00;99.90;;;;;;5109569;27;20224;-58
2021/12/31 01:00:28;;;;;;;0.20;0.20;;;12.00;99.90;;;;;;5100206;27;20175;-60
2021/12/31 01:02:54;;;;;;;0.60;0.20;;;12.00;99.90;;;;;;5092514;27;20173;-60
2021/12/31 01:05:20;;;;;;;0.20;0.20;;;12.00;99.90;;;;;;5116215;27;20185;-56
2021/12/31 01:07:46;;;;;;;0.60;0.20;;;12.00;99.90;;;;;;5089010;28;20185;-61
2021/12/31 01:10:15;;;;;;;0.93;0.30;;;12.00;99.90;;;;;;5068739;28;20196;-55
2021/12/31 01:12:41;;;;;;;0.20;0.20;;;12.00;99.90;;;;;;5069806;28;20184;-58
2021/12/31 01:15:12;;;;;;;0.10;0.10;;;12.00;99.90;;;;;;5083129;28;20205;-57
2021/12/31 01:20:05;;;;;;;0.23;0.23;;;12.00;99.90;;;;;;5100819;28;20220;-61
2021/12/31 01:22:33;;;;;;;0.13;0.13;;;12.00;99.90;;;;;;5070032;28;20195;-59
2021/12/31 01:25:00;;;;;;;0.67;0.30;;;11.90;99.90;;;;;;5066643;28;20189;-58
2021/12/31 01:27:25;;;;;;;0.10;0.10;;;11.90;99.90;;;;;;5068502;28;20193;-58
2021/12/31 01:29:51;;;;;;;0.20;0.20;;;11.90;99.90;;;;;;5068746;28;20184;-54
2021/12/31 01:32:17;;;;;;;0.10;0.10;;;11.90;99.90;;;;;;5083634;28;20269;-53
2021/12/31 01:34:43;;;;;;;0.10;0.10;;;11.90;99.90;;;;;;5087255;28;20224;-56
2021/12/31 01:37:10;;;;;;;0.20;0.20;;;11.90;99.90;;;;;;5065268;28;20189;-56
2021/12/31 01:39:37;;;;;;;0.70;0.30;;;11.90;99.90;;;;;;5069761;28;20224;-57
2021/12/31 01:42:07;;;;;;;0.30;0.23;;;11.90;99.90;;;;;;5066109;28;20173;-59
2021/12/31 01:44:39;;;;;;;0.10;0.10;;;11.90;99.90;;;;;;5085334;28;20229;-57
2021/12/31 01:47:10;;;;;;;0.10;0.10;;;11.90;99.90;;;;;;5085437;28;20193;-61
2021/12/31 01:49:39;;;;;;;0.03;0.03;;;11.90;99.90;;;;;;5083718;28;20238;-59
2021/12/31 01:52:07;;;;;;;0.37;0.20;;;11.80;99.90;;;;;;5086732;28;20193;-60
2021/12/31 01:54:34;;;;;;;0.20;0.20;;;11.90;99.90;;;;;;5082320;28;20224;-56
2021/12/31 01:57:06;;;;;;;0.77;0.10;;;11.90;99.90;;;;;;5086580;28;20293;-58
2021/12/31 01:59:35;;;;;;;0.67;0.23;;;11.90;99.90;;;;;;5083377;28;20189;-57
2021/12/31 02:02:01;;;;;;;0.33;0.10;;;11.90;99.90;;;;;;5084774;28;20193;-56
2021/12/31 02:04:29;;;;;;;0.20;0.13;;;11.80;99.90;;;;;;5084872;28;20196;-55
2021/12/31 02:06:56;;;;;;;0.37;0.20;;;11.80;99.90;;;;;;5082522;28;20181;-57
2021/12/31 02:09:22;;;;;;;1.17;0.47;;;11.80;99.90;;;;;;5087927;28;20177;-58
2021/12/31 02:11:48;;;;;;;0.20;0.20;;;11.80;99.90;;;;;;5103127;28;20181;-58
2021/12/31 02:14:14;;;;;;;1.30;0.23;;;11.80;99.90;;;;;;5090584;28;20212;-59
2021/12/31 02:16:40;;;;;;;0.20;0.20;;;11.80;99.90;;;;;;5087074;28;20185;-57
2021/12/31 02:19:13;;;;;;;0.10;0.10;;;11.80;99.90;;;;;;5090032;28;20250;-58
2021/12/31 02:21:44;;;;;;;0.10;0.10;;;11.80;99.90;;;;;;5089835;28;20181;-63
2021/12/31 02:24:10;;;;;;;0.73;0.20;;;11.70;99.90;;;;;;5087570;28;20181;-59
2021/12/31 02:26:35;;;;;;;0.10;0.10;;;11.80;99.90;;;;;;5107668;28;20211;-58
2021/12/31 02:29:02;;;;;;;0.73;0.30;;;11.80;99.90;;;;;;5102844;28;20246;-52
2021/12/31 02:31:27;;;;;;;0.83;0.50;;;11.80;99.90;;;;;;5090461;28;20265;-56
2021/12/31 02:33:53;;;;;;;0.10;0.10;;;11.80;99.90;;;;;;5103538;28;20216;-54
2021/12/31 02:36:19;;;;;;;0.10;0.10;;;11.80;99.90;;;;;;5106829;28;20185;-51
2021/12/31 02:38:45;;;;;;;0.23;0.20;;;11.80;99.90;;;;;;5105211;28;20238;-55
2021/12/31 02:41:11;;;;;;;0.10;0.10;;;11.80;99.90;;;;;;5105224;28;20222;-54
2021/12/31 02:43:38;;;;;;;0.10;0.10;;;11.80;99.90;;;;;;5095881;28;20253;-55
2021/12/31 02:46:04;;;;;;;0.20;0.20;;;11.80;99.90;;;;;;5085604;28;20214;-55
2021/12/31 02:48:30;;;;;;;0.13;0.13;;;11.80;99.90;;;;;;5124015;27;20195;-59
2021/12/31 02:50:58;;;;;;;0.23;0.23;;;11.70;99.90;;;;;;5120159;27;20284;-58
2021/12/31 02:53:41;;;;;;;1.40;0.30;;;11.70;99.90;;;;;;5106632;28;20213;-62
2021/12/31 02:56:12;;;;;;;0.10;0.10;;;11.70;99.90;;;;;;5087475;28;20188;-57
2021/12/31 02:58:40;;;;;;;0.20;0.20;;;11.60;99.90;;;;;;5087058;28;20193;-58
2021/12/31 03:01:07;;;;;;;0.20;0.20;;;11.50;99.90;;;;;;5106793;28;20185;-61
2021/12/31 03:03:34;;;;;;;0.10;0.10;;;11.50;99.90;;;;;;5119279;27;20185;-60
2021/12/31 03:06:00;;;;;;;0.57;0.30;;;11.50;99.90;;;;;;5089346;28;20192;-62
2021/12/31 03:08:30;;;;;;;0.53;0.30;;;11.40;99.90;;;;;;5103043;28;20189;-57
2021/12/31 03:10:58;;;;;;;0.20;0.20;;;11.40;99.90;;;;;;5106044;28;20315;-60
2021/12/31 03:13:24;;;;;;;0.20;0.20;;;11.40;99.90;;;;;;5087281;28;20251;-58
2021/12/31 03:15:53;;;;;;;3.93;0.40;;;11.50;99.90;;;;;;5104096;28;20192;-58
2021/12/31 03:18:19;;;;;;;0.30;0.30;;;11.60;99.90;;;;;;5123289;27;20228;-58
2021/12/31 03:21:01;;;;;;;0.60;0.40;;;11.60;99.90;;;;;;5084934;28;20196;-55
2021/12/31 03:23:29;;;;;;;0.13;0.13;;;11.60;99.90;;;;;;5106584;28;20177;-58
2021/12/31 03:25:54;;;;;;;0.20;0.10;;;11.60;99.90;;;;;;5085218;28;20185;-59
2021/12/31 03:28:21;;;;;;;0.10;0.10;;;11.60;99.90;;;;;;5122730;27;20189;-58
2021/12/31 03:30:48;;;;;;;0.30;0.30;;;11.70;99.90;;;;;;5104337;28;20181;-59
2021/12/31 03:33:14;;;;;;;0.17;0.10;;;11.70;99.90;;;;;;5103968;28;20240;-57
2021/12/31 03:35:40;;;;;;;1.07;0.43;;;11.60;99.90;;;;;;5088790;28;20177;-59
2021/12/31 03:38:06;;;;;;;1.13;0.20;;;11.60;99.90;;;;;;5119170;27;20202;-58
2021/12/31 03:40:32;;;;;;;0.37;0.20;;;11.70;99.90;;;;;;5105684;28;20189;-58
2021/12/31 03:42:58;;;;;;;0.37;0.30;;;11.70;99.90;;;;;;5101846;28;20235;-56
2021/12/31 03:45:24;;;;;;;0.20;0.20;;;11.70;99.90;;;;;;5122428;27;20237;-55
2021/12/31 03:47:50;;;;;;;0.10;0.10;;;11.70;99.90;;;;;;5137167;27;20193;-61
2021/12/31 03:50:16;;;;;;;0.40;0.40;;;11.70;99.90;;;;;;5121545;27;20185;-57
2021/12/31 03:52:42;;;;;;;0.33;0.20;;;11.70;99.90;;;;;;5087746;28;20198;-61
2021/12/31 03:55:10;;;;;;;0.20;0.20;;;11.70;99.90;;;;;;5137199;27;20217;-58
2021/12/31 03:57:36;;;;;;;0.10;0.10;;;11.70;99.90;;;;;;5139979;27;20177;-56
2021/12/31 04:00:08;;;;;;;11.37;4.03;;;11.70;99.90;;;;;;5118831;27;20237;-55
2021/12/31 04:02:35;;;;;;;0.43;0.30;;;11.70;99.90;;;;;;5105003;28;20205;-56
2021/12/31 04:05:01;;;;;;;0.30;0.30;;;11.80;99.90;;;;;;5118932;27;20193;-58
2021/12/31 04:07:27;;;;;;;0.27;0.27;;;11.70;99.90;;;;;;5122041;27;20189;-58
2021/12/31 04:09:53;;;;;;;0.10;0.10;;;11.70;99.90;;;;;;5138540;27;20203;-62
2021/12/31 04:12:19;;;;;;;0.27;0.27;;;11.70;99.90;;;;;;5137743;27;20181;-55
2021/12/31 04:14:44;;;;;;;0.20;0.20;;;11.80;99.90;;;;;;5088280;28;20216;-59
2021/12/31 04:17:10;;;;;;;0.10;0.10;;;11.80;99.90;;;;;;5083797;28;20275;-57
2021/12/31 04:19:36;;;;;;;0.20;0.20;;;11.80;99.90;;;;;;5140547;27;20200;-59
2021/12/31 04:22:02;;;;;;;1.30;0.20;;;11.80;99.90;;;;;;5118888;27;20185;-57
2021/12/31 04:26:54;;;;;;;0.20;0.20;;;11.80;99.90;;;;;;5102464;28;20189;-60
2021/12/31 04:29:20;;;;;;;0.60;0.40;;;11.80;99.90;;;;;;5086543;28;20193;-61
2021/12/31 04:31:46;;;;;;;2.10;0.30;;;11.80;99.90;;;;;;5138404;27;20181;-63
2021/12/31 04:34:12;;;;;;;2.70;1.60;;;11.80;99.90;;;;;;5084026;28;20213;-57
2021/12/31 04:36:38;;;;;;;3.97;1.70;;;11.90;99.90;;;;;;5139470;27;20193;-60
2021/12/31 04:39:04;;;;;;;1.60;0.90;;;11.80;99.90;;;;;;5134790;27;20189;-58
2021/12/31 04:41:29;;;;;;;0.73;0.40;;;11.80;99.90;;;;;;5087597;28;20200;-52
2021/12/31 04:43:55;;;;;;;0.63;0.60;;;11.80;99.90;;;;;;5118485;27;20316;-55
2021/12/31 04:46:21;;;;;;;0.93;0.67;;;11.80;99.90;;;;;;5137816;27;20264;-56
2021/12/31 04:48:46;;;;;;;0.20;0.20;;;11.80;99.90;;;;;;5137071;27;20236;-63
2021/12/31 04:51:12;;;;;;;0.20;0.20;;;11.70;99.90;;;;;;5136854;27;20185;-58
2021/12/31 04:53:38;;;;;;;0.10;0.10;;;11.70;99.90;;;;;;5120964;27;20217;-55
2021/12/31 04:56:04;;;;;;;0.10;0.10;;;11.70;99.90;;;;;;5117497;27;20231;-56
2021/12/31 04:58:29;;;;;;;0.40;0.20;;;11.70;99.90;;;;;;5086630;28;20274;-57
2021/12/31 05:00:58;;;;;;;0.20;0.20;;;11.80;99.90;;;;;;5117666;27;20189;-57
2021/12/31 05:03:24;;;;;;;0.13;0.13;;;11.80;99.90;;;;;;5121409;27;20249;-57
2021/12/31 05:05:50;;;;;;;0.57;0.13;;;11.80;99.90;;;;;;5118441;27;20185;-58
2021/12/31 05:08:15;;;;;;;0.27;0.27;;;11.80;99.90;;;;;;5085837;28;20207;-59
2021/12/31 05:10:41;;;;;;;0.20;0.20;;;11.80;99.90;;;;;;5120357;27;20189;-58
2021/12/31 05:13:09;;;;;;;0.30;0.30;;;11.80;99.90;;;;;;5117618;27;20181;-53
2021/12/31 05:15:38;;;;;;;0.40;0.40;;;11.80;99.90;;;;;;5138373;27;20181;-59
2021/12/31 05:18:04;;;;;;;0.60;0.40;;;11.80;99.90;;;;;;5082592;28;20181;-55
2021/12/31 05:20:30;;;;;;;0.27;0.27;;;11.80;99.90;;;;;;5087521;28;20227;-52
2021/12/31 05:22:57;;;;;;;3.80;2.33;;;11.80;99.90;;;;;;5117704;27;20212;-58
2021/12/31 05:25:23;;;;;;;0.70;0.50;;;11.80;99.90;;;;;;5120232;27;20186;-58
2021/12/31 05:27:50;;;;;;;37.60;16.03;;;11.80;99.90;;;;;;5102447;28;20185;-56
2021/12/31 05:30:15;;;;;;;0.10;0.10;;;11.80;99.90;;;;;;5118176;27;20193;-58
2021/12/31 05:32:41;;;;;;;0.53;0.50;;;11.80;99.90;;;;;;5138311;27;20177;-62
2021/12/31 05:35:08;;;;;;;0.93;0.63;;;11.80;99.90;;;;;;5133346;27;20213;-59
2021/12/31 05:37:33;;;;;;;0.40;0.40;;;11.80;99.90;;;;;;5120646;27;20610;-58
2021/12/31 05:39:59;;;;;;;0.30;0.30;;;11.80;99.90;;;;;;5134576;27;20230;-54
2021/12/31 05:42:25;;;;;;;0.37;0.27;;;11.90;99.90;;;;;;5137778;27;20196;-57
2021/12/31 05:44:50;;;;;;;0.20;0.20;;;11.80;99.90;;;;;;5117413;27;20733;-61
2021/12/31 05:47:16;;;;;;;0.30;0.30;;;11.80;99.90;;;;;;5136684;27;20189;-59
2021/12/31 05:49:42;;;;;;;0.47;0.30;;;11.90;99.90;;;;;;5137600;27;20174;-58
2021/12/31 05:52:09;;;;;;;0.87;0.50;;;11.90;99.90;;;;;;5117825;27;20174;-60
2021/12/31 05:54:35;;;;;;;0.57;0.50;;;11.80;99.90;;;;;;5120796;27;20216;-59
2021/12/31 05:57:00;;;;;;;0.10;0.10;;;11.90;99.90;;;;;;5081925;28;20189;-56
2021/12/31 05:59:26;;;;;;;0.40;0.40;;;11.80;99.90;;;;;;5138237;27;20185;-57
2021/12/31 06:01:52;;;;;;;0.67;0.30;;;11.80;99.90;;;;;;5134479;27;20192;-56
2021/12/31 06:04:17;;;;;;;0.20;0.20;;;11.80;99.90;;;;;;5086939;27;20181;-55
2021/12/31 06:06:44;;;;;;;0.97;0.30;;;11.80;99.90;;;;;;5108760;27;20196;-62
2021/12/31 06:09:13;;;;;;;0.63;0.37;;;11.80;99.90;;;;;;5107673;27;20198;-57
2021/12/31 06:11:40;;;;;;;0.97;0.30;;;11.80;99.90;;;;;;5110017;27;20365;-53
2021/12/31 06:14:08;;;;;;;0.73;0.20;;;11.80;99.90;;;;;;5105846;27;20215;-57
2021/12/31 06:16:38;;;;;;;0.10;0.10;;;11.80;99.90;;;;;;5109857;27;20192;-57
2021/12/31 06:19:05;;;;;;;0.23;0.23;;;11.70;99.90;;;;;;5106193;27;20192;-56
2021/12/31 06:21:37;;;;;;;0.10;0.10;;;11.70;99.90;;;;;;5110272;27;20187;-58
2021/12/31 06:24:03;;;;;;;0.10;0.10;;;11.60;99.90;;;;;;5108689;27;20283;-56
2021/12/31 06:26:29;;;;;;;0.30;0.30;;;11.60;99.90;;;;;;5107841;27;20179;-54
2021/12/31 06:28:55;;;;;;;0.37;0.37;;;11.70;99.90;;;;;;5110067;27;20199;-55
2021/12/31 06:31:22;;;;;;;0.50;0.50;;;11.70;99.90;;;;;;5105661;27;20188;-55
2021/12/31 06:33:47;;;;;;;0.13;0.13;;;11.70;99.90;;;;;;5109465;27;20215;-55
2021/12/31 06:36:15;;;;;;;0.10;0.10;;;11.70;99.90;;;;;;5106277;27;20240;-55
2021/12/31 06:38:41;;;;;;;1.33;0.80;;;11.70;99.90;;;;;;5109891;27;20199;-61
2021/12/31 06:41:07;;;;;;;7.70;4.03;;;11.70;99.90;;;;;;5107902;27;20210;-62
2021/12/31 06:43:32;;;;;;;2.30;1.13;;;11.80;99.90;;;;;;5108312;27;20237;-58
2021/12/31 06:45:58;;;;;;;1.00;0.60;;;11.80;99.90;;;;;;5143270;27;20184;-57
2021/12/31 06:48:24;;;;;;;2.17;0.93;;;11.80;99.90;;;;;;5140414;27;20276;-56
2021/12/31 06:50:50;;;;;;;0.37;0.20;;;11.80;99.90;;;;;;5144486;27;20230;-62
2021/12/31 06:53:15;;;;;;;0.73;0.70;;;11.80;99.90;;;;;;5139254;27;20180;-60
2021/12/31 06:55:41;;;;;;;1.37;0.70;;;11.80;99.90;;;;;;5145526;27;20192;-57
2021/12/31 06:58:07;;;;;;;0.40;0.40;;;11.80;99.90;;;;;;5144257;27;20211;-56
2021/12/31 07:00:33;;;;;;;0.73;0.40;;;11.80;99.90;;;;;;5147402;27;20188;-59
2021/12/31 07:03:08;;;;;;;12.90;6.97;;;11.70;99.90;;;;;;5146337;27;20270;-53
2021/12/31 07:05:34;;;;;;;5.13;3.90;;;11.70;99.90;;;;;;5133401;27;20179;-56
2021/12/31 07:08:00;;;;;;;0.67;0.50;;;11.80;99.90;;;;;;5138703;27;20196;-62
2021/12/31 07:10:28;;;;;;;1.07;0.70;;;11.70;99.90;;;;;;5113744;27;20188;-56
2021/12/31 07:13:05;;;;;;;0.60;0.60;;;11.70;99.90;;;;;;5128991;27;20184;-61
2021/12/31 07:15:31;;;;;;;1.10;0.50;;;11.70;99.90;;;;;;5116054;27;20296;-57
2021/12/31 07:17:57;;;;;;;1.40;1.30;;;11.70;99.90;;;;;;5126333;27;20177;-56
2021/12/31 07:20:23;;;;;;;1.33;1.23;;;11.80;99.90;;;;;;5108887;27;20184;-57
2021/12/31 07:22:49;;;;;;;2.03;0.90;;;11.90;99.90;;;;;;5106959;27;20184;-54
2021/12/31 07:25:15;;;;;;;1.03;1.00;;;11.90;99.90;;;;;;5126958;27;20267;-56
2021/12/31 07:27:41;;;;;;;2.83;0.73;;;11.90;99.90;;;;;;5122306;27;20253;-58
2021/12/31 07:30:07;;;;;;;0.60;0.60;;;11.70;99.90;;;;;;5110062;27;20180;-54
2021/12/31 07:32:36;;;;;;;22.07;11.67;;;11.50;99.90;;;;;;5105173;27;20189;-59
2021/12/31 07:35:03;;;;;;;13.80;6.20;;;11.40;99.90;;;;;;5092182;27;20269;-53
2021/12/31 07:37:29;;;;;;;0.40;0.40;;;11.30;99.90;;;;;;5107519;27;20177;-57
2021/12/31 07:40:00;;;;;;;0.30;0.30;;;11.10;99.90;;;;;;5107525;27;20180;-54
2021/12/31 07:42:26;;;;;;;0.43;0.43;;;11.00;99.90;;;;;;5109276;27;20268;-56
2021/12/31 07:44:52;;;;;;;0.63;0.63;;;10.90;99.90;;;;;;5088979;27;20361;-55
2021/12/31 07:47:18;;;;;;;1.47;0.60;;;10.80;99.90;;;;;;5089499;27;20176;-52
2021/12/31 07:49:44;;;;;;;0.50;0.50;;;10.80;99.90;;;;;;5085097;28;20177;-55
2021/12/31 07:52:09;;;;;;;0.50;0.50;;;10.70;99.90;;;;;;5089176;28;20189;-62
2021/12/31 07:54:35;;;;;;;0.40;0.40;;;10.60;99.90;;;;;;5085043;28;20354;-62
2021/12/31 07:57:01;;;;;;;0.70;0.70;;;10.60;99.90;;;;;;5089269;28;20185;-63
2021/12/31 07:59:26;;;;;;;0.77;0.40;;;10.60;99.90;;;;;;5088916;28;20185;-63
2021/12/31 08:01:52;;;;;;;0.43;0.43;;;10.60;99.90;;;;;;5087152;28;20173;-62
2021/12/31 08:04:18;;;;;;;1.10;0.50;;;10.50;99.90;;;;;;5089760;28;20248;-61
2021/12/31 08:06:43;;;;;;;0.40;0.40;;;10.60;99.90;;;;;;5084737;28;20212;-57
2021/12/31 08:09:09;;;;;;;1.60;0.50;;;10.60;99.90;;;;;;5089923;28;20189;-56
2021/12/31 08:11:37;;;;;;;1.60;0.50;;;10.60;99.90;;;;;;5085871;28;20191;-54
2021/12/31 08:14:03;;;;;;;2.63;0.47;;;10.60;99.90;;;;;;5089294;28;20213;-59
2021/12/31 08:16:29;;;;;;;0.30;0.30;;;10.60;99.90;;;;;;5087608;28;20192;-63
2021/12/31 08:18:55;;;;;;;8.17;5.27;;;10.50;99.90;;;;;;5086938;28;20193;-58
2021/12/31 08:21:21;;;;;;;4.23;3.07;;;10.50;99.90;;;;;;5089051;28;20181;-58
2021/12/31 08:23:47;;;;;;;0.80;0.80;;;10.50;99.90;;;;;;5085365;28;20287;-55
2021/12/31 08:26:12;;;;;;;0.40;0.40;;;10.50;99.90;;;;;;5089809;28;20196;-57
2021/12/31 08:28:38;;;;;;;0.57;0.57;;;10.50;99.90;;;;;;5085479;28;20185;-58
2021/12/31 08:31:04;;;;;;;0.50;0.50;;;10.50;99.90;;;;;;5089618;28;20240;-55
2021/12/31 08:33:30;;;;;;;1.50;1.00;;;10.50;99.90;;;;;;5085868;28;20244;-60
2021/12/31 08:35:56;;;;;;;0.57;0.57;;;10.50;99.90;;;;;;5088701;28;20214;-56
2021/12/31 08:38:24;;;;;;;0.57;0.57;;;10.60;99.90;;;;;;5087474;28;20272;-58
2021/12/31 08:40:50;;;;;;;0.37;0.37;;;10.60;99.90;;;;;;5085825;28;20194;-58
2021/12/31 08:43:16;;;;;;;0.70;0.70;;;10.60;99.90;;;;;;5089164;28;20213;-60
2021/12/31 08:45:42;;;;;;;0.53;0.53;;;10.60;99.90;;;;;;5085206;28;20192;-60
2021/12/31 08:48:08;;;;;;;0.53;0.50;;;10.70;99.90;;;;;;5088638;28;20260;-55
2021/12/31 08:50:35;;;;;;;1.30;0.73;;;10.60;99.90;;;;;;5085323;28;20240;-59
2021/12/31 08:53:01;;;;;;;0.67;0.67;;;10.60;99.90;;;;;;5105430;28;20203;-57
2021/12/31 08:55:27;;;;;;;0.73;0.73;;;10.70;99.90;;;;;;5103783;28;20221;-56
2021/12/31 08:57:52;;;;;;;0.70;0.70;;;10.70;99.90;;;;;;5087366;28;20260;-58
2021/12/31 09:00:18;;;;;;;1.70;0.53;;;10.80;99.90;;;;;;5088330;28;20192;-53
2021/12/31 09:02:46;;;;;;;0.50;0.50;;;10.70;99.90;;;;;;5085123;28;20189;-54
2021/12/31 09:05:12;;;;;;;1.90;0.67;;;10.70;99.90;;;;;;5105654;28;20221;-59
2021/12/31 09:07:38;;;;;;;0.80;0.80;;;10.70;99.90;;;;;;5084239;28;20181;-55
2021/12/31 09:10:05;;;;;;;0.70;0.70;;;10.80;99.90;;;;;;5088846;28;20208;-53
2021/12/31 09:12:30;;;;;;;2.17;0.97;;;10.80;99.90;;;;;;5102542;28;20185;-56
2021/12/31 09:14:56;;;;;;;0.60;0.60;;;10.80;99.90;;;;;;5087873;28;20221;-55
2021/12/31 09:17:22;;;;;;;0.73;0.73;;;10.80;99.90;;;;;;5103807;28;20182;-57
2021/12/31 09:19:50;;;;;;;0.87;0.87;;;10.80;99.90;;;;;;5085159;28;20189;-54
2021/12/31 09:22:16;;;;;;;0.83;0.83;;;10.90;99.90;;;;;;5105366;28;20208;-54
2021/12/31 09:24:42;;;;;;;0.60;0.60;;;10.90;99.90;;;;;;5101420;28;20188;-55
2021/12/31 09:27:08;;;;;;;0.90;0.90;;;10.90;99.90;;;;;;5088543;28;20279;-55
2021/12/31 09:29:34;;;;;;;0.73;0.73;;;11.00;99.90;;;;;;5084169;28;20308;-59
2021/12/31 09:32:00;;;;;;;0.77;0.77;;;10.90;99.90;;;;;;5088212;28;20256;-57
2021/12/31 09:34:25;;;;;;;0.50;0.50;;;11.00;99.90;;;;;;5085655;28;20300;-57
2021/12/31 09:36:51;;;;;;;1.10;1.10;;;11.00;99.90;;;;;;5088564;27;20169;-56
2021/12/31 09:39:17;;;;;;;3.63;1.10;;;11.00;99.90;;;;;;5089627;27;20173;-55
2021/12/31 09:41:43;;;;;;;0.53;0.53;;;10.90;99.90;;;;;;5087125;27;20173;-56
2021/12/31 09:44:14;;;;;;;0.60;0.60;;;11.00;99.90;;;;;;5103198;27;20242;-55
2021/12/31 09:46:40;;;;;;;0.50;0.50;;;10.90;99.90;;;;;;5106234;27;20175;-54
2021/12/31 09:49:05;;;;;;;1.40;0.90;;;11.00;99.90;;;;;;5110288;27;20180;-53
2021/12/31 09:51:33;;;;;;;2.67;1.03;;;11.00;99.90;;;;;;5107485;27;20176;-58
2021/12/31 09:53:59;;;;;;;0.57;0.57;;;11.00;99.90;;;;;;5109073;27;20212;-53
2021/12/31 09:56:26;;;;;;;1.10;0.93;;;10.90;99.90;;;;;;5109015;27;20192;-57
2021/12/31 09:58:52;;;;;;;0.53;0.53;;;10.90;99.90;;;;;;5100626;27;20184;-56
2021/12/31 10:01:17;;;;;;;0.80;0.80;;;11.00;99.90;;;;;;5111843;27;20316;-56
2021/12/31 10:03:55;;;;;;;0.67;0.67;;;11.10;99.90;;;;;;5104971;27;20207;-56
2021/12/31 10:06:21;;;;;;;0.83;0.73;;;11.20;99.90;;;;;;5094155;27;20172;-55
2021/12/31 10:08:48;;;;;;;0.60;0.60;;;11.30;99.90;;;;;;5105822;27;20188;-56
2021/12/31 10:11:21;;;;;;;0.40;0.40;;;11.30;99.90;;;;;;5109319;27;20191;-56
2021/12/31 10:13:53;;;;;;;0.60;0.60;;;11.30;99.90;;;;;;5109544;27;20313;-58
2021/12/31 10:16:29;;;;;;;0.90;0.90;;;11.40;99.90;;;;;;5101596;27;20192;-56
2021/12/31 10:19:07;;;;;;;0.57;0.57;;;11.50;99.90;;;;;;5097459;27;20183;-56
2021/12/31 10:21:46;;;;;;;0.70;0.70;;;11.60;99.90;;;;;;5108884;27;20247;-57
2021/12/31 10:24:34;;;;;;;0.83;0.80;;;11.60;99.90;;;;;;5112211;27;20187;-54
2021/12/31 10:27:09;;;;;;;1.00;0.93;;;11.50;99.90;;;;;;5109746;27;20220;-59
2021/12/31 10:30:06;;;;;;;0.87;0.87;;;11.50;99.90;;;;;;5139828;27;20179;-59
2021/12/31 10:32:40;;;;;;;1.03;1.00;;;11.50;99.90;;;;;;5147858;27;20247;-56
2021/12/31 10:35:21;;;;;;;1.63;1.53;;;11.50;99.90;;;;;;5111946;27;20214;-54
2021/12/31 10:38:01;;;;;;;1.83;1.43;;;11.50;99.90;;;;;;5111375;27;20175;-62
2021/12/31 10:40:40;;;;;;;1.80;1.60;;;11.60;99.90;;;;;;5112872;27;20176;-58
2021/12/31 10:43:16;;;;;;;1.63;1.40;;;11.60;99.90;;;;;;5102104;27;20223;-57
2021/12/31 10:45:59;;;;;;;1.10;1.10;;;11.60;99.90;;;;;;5110180;27;20204;-57
2021/12/31 10:48:43;;;;;;;1.43;1.33;;;11.60;99.90;;;;;;5093163;27;20189;-60
2021/12/31 10:51:11;;;;;;;1.00;1.00;;;11.60;99.90;;;;;;5090505;27;20176;-60
2021/12/31 10:53:37;;;;;;;1.23;1.13;;;11.70;99.90;;;;;;5111123;27;20234;-63
2021/12/31 10:56:09;;;;;;;2.50;1.47;;;11.60;99.90;;;;;;5090544;27;20253;-55
2021/12/31 10:58:36;;;;;;;2.40;1.57;;;11.70;99.90;;;;;;5092391;27;20252;-56
2021/12/31 11:01:06;;;;;;;1.47;1.37;;;11.70;99.90;;;;;;5092535;27;20208;-60
2021/12/31 11:03:34;;;;;;;3.07;1.13;;;11.70;99.90;;;;;;5092326;27;20244;-61
2021/12/31 11:06:01;;;;;;;1.77;1.50;;;11.70;99.90;;;;;;5093706;27;20189;-55
2021/12/31 11:08:29;;;;;;;1.50;1.40;;;11.80;99.90;;;;;;5089409;27;20195;-60
2021/12/31 11:10:56;;;;;;;1.40;1.30;;;11.90;99.90;;;;;;5093967;27;20173;-59
2021/12/31 11:13:27;;;;;;;1.07;1.07;;;11.90;99.90;;;;;;5090145;27;20275;-60
2021/12/31 11:15:55;;;;;;;1.10;1.10;;;11.90;99.90;;;;;;5093117;27;20176;-58
2021/12/31 11:18:23;;;;;;;1.00;0.97;;;11.90;99.90;;;;;;5090319;27;20188;-60
2021/12/31 11:20:51;;;;;;;1.43;1.17;;;11.90;99.90;;;;;;5090446;27;20177;-61
2021/12/31 11:23:22;;;;;;;1.37;1.00;;;12.00;99.90;;;;;;5092489;27;20213;-61
2021/12/31 11:25:51;;;;;;;2.23;1.20;;;12.10;99.90;;;;;;5088100;27;20248;-56
2021/12/31 11:28:35;;;;;;;0.70;0.70;;;12.10;99.90;;;;;;5092247;27;20188;-57
2021/12/31 11:31:19;;;;;;;0.83;0.83;;;12.10;99.90;;;;;;5088824;27;20220;-56
2021/12/31 11:34:00;;;;;;;0.90;0.90;;;12.20;99.90;;;;;;5124492;27;20309;-58
2021/12/31 11:36:45;;;;;;;1.00;0.97;;;12.20;99.90;;;;;;5092203;27;20177;-58
2021/12/31 11:39:23;;;;;;;1.33;1.23;;;12.20;99.90;;;;;;5086133;27;20189;-56
2021/12/31 11:41:50;;;;;;;1.20;1.20;;;12.20;99.90;;;;;;5091292;27;20184;-58
2021/12/31 11:44:17;;;;;;;0.93;0.80;;;12.30;99.90;;;;;;5089482;27;20224;-52
2021/12/31 11:46:47;;;;;;;1.03;1.03;;;12.30;99.90;;;;;;5090557;27;20177;-54
2021/12/31 11:49:21;;;;;;;1.20;1.10;;;12.30;99.90;;;;;;5090570;27;20229;-57
2021/12/31 11:52:08;;;;;;;1.17;1.10;;;12.30;99.90;;;;;;5111932;27;20179;-58
2021/12/31 11:54:39;;;;;;;1.53;1.43;;;12.30;99.90;;;;;;5089128;28;20301;-57
2021/12/31 11:57:26;;;;;;;1.57;1.47;;;12.30;99.90;;;;;;5102415;28;20256;-58
2021/12/31 11:59:54;;;;;;;1.57;1.47;;;12.40;99.90;;;;;;5117006;27;20181;-60
2021/12/31 12:02:34;;;;;;;2.17;1.77;;;12.30;99.90;;;;;;5091286;27;20191;-54
2021/12/31 12:05:03;;;;;;;1.83;1.73;;;12.40;99.90;;;;;;5087986;27;20206;-55
2021/12/31 12:07:34;;;;;;;1.63;1.37;;;12.40;99.90;;;;;;5092345;27;20208;-55
2021/12/31 12:10:00;;;;;;;2.03;1.93;;;12.40;99.90;;;;;;5088491;27;20216;-50
2021/12/31 12:12:34;;;;;;;1.50;1.40;;;12.40;99.90;;;;;;5093366;27;20217;-57
2021/12/31 12:15:22;;;;;;;2.37;1.90;;;12.40;99.90;;;;;;5111518;27;20234;-56
2021/12/31 12:17:47;;;;;;;1.60;1.50;;;12.40;99.90;;;;;;5122811;27;20181;-54
2021/12/31 12:20:22;;;;;;;1.60;1.47;;;12.40;99.90;;;;;;5090959;27;20187;-54
2021/12/31 12:22:56;;;;;;;2.23;1.70;;;12.40;99.90;;;;;;5088168;27;20184;-56
2021/12/31 12:25:26;;;;;;;1.43;1.33;;;12.40;99.90;;;;;;5108857;27;20189;-58
2021/12/31 12:28:04;;;;;;;1.63;1.10;;;12.40;99.90;;;;;;5087774;27;20245;-56
2021/12/31 12:30:30;;;;;;;1.47;1.37;;;12.40;99.90;;;;;;5084256;27;20172;-56
2021/12/31 12:35:42;;;;;;;1.53;1.20;;;12.40;99.90;;;;;;5098862;27;20212;-54
2021/12/31 12:38:19;;;;;;;1.83;1.57;;;12.30;99.90;;;;;;5089831;27;20196;-55
2021/12/31 12:40:45;;;;;;;2.33;1.00;;;12.30;99.90;;;;;;5087978;27;20241;-54
2021/12/31 12:43:18;;;;;;;1.27;1.17;;;12.40;99.90;;;;;;5085316;27;20681;-53
2021/12/31 12:46:05;;;;;;;1.80;1.73;;;12.40;99.90;;;;;;5088547;27;20180;-55
2021/12/31 12:48:35;;;;;;;0.80;0.80;;;12.30;99.90;;;;;;5083352;27;20187;-56
2021/12/31 12:51:09;;;;;;;1.20;1.10;;;12.40;99.90;;;;;;5090217;27;20192;-54
2021/12/31 12:53:40;;;;;;;0.97;0.97;;;12.20;99.90;;;;;;5085274;27;20195;-54
2021/12/31 12:56:11;;;;;;;1.03;1.00;;;12.20;99.90;;;;;;5089085;27;20277;-54
2021/12/31 12:58:46;;;;;;;2.10;1.90;;;12.20;99.90;;;;;;5093764;27;20184;-56